Time;durP1;ratioP1;P1;durP2;ratioP2;P2;SDS_P1;SDS_P2;PMS_P1;PMS_P2;Temp;Humidity;BMP_temperature;BMP_pressure;BME280_temperature;BME280_humidity;BME280_pressure;Samples;Min_cycle;Max_cycle;Signal;HPM_P1;HPM_P2
2022/08/05 00:04:09;;;;;;;3.50;1.70;;;24.80;64.70;;;;;;10537760;28;20135;-54
2022/08/05 00:09:10;;;;;;;2.22;1.60;;;24.80;64.80;;;;;;10537523;28;20395;-54
2022/08/05 00:14:11;;;;;;;2.65;1.80;;;24.80;64.80;;;;;;10537590;28;20603;-54
2022/08/05 00:19:11;;;;;;;2.63;1.45;;;24.80;64.80;;;;;;10537943;28;20032;-55
2022/08/05 00:24:12;;;;;;;3.05;1.70;;;24.80;64.80;;;;;;10537284;28;20651;-55
2022/08/05 00:29:13;;;;;;;4.05;2.42;;;24.80;64.80;;;;;;10519354;28;20035;-56
2022/08/05 00:34:13;;;;;;;2.90;1.85;;;24.80;64.80;;;;;;10519227;28;20123;-55
2022/08/05 00:39:14;;;;;;;1.92;1.48;;;24.80;64.90;;;;;;10536302;28;20048;-55
2022/08/05 00:44:15;;;;;;;3.15;1.63;;;24.80;64.90;;;;;;10536315;28;20360;-54
2022/08/05 00:49:19;;;;;;;2.03;1.58;;;24.80;64.90;;;;;;10536436;28;20042;-54
2022/08/05 00:54:19;;;;;;;3.95;1.77;;;24.80;65.50;;;;;;10535821;28;20463;-55
2022/08/05 00:59:20;;;;;;;3.05;1.65;;;24.80;64.90;;;;;;10536001;28;20032;-52
2022/08/05 01:04:21;;;;;;;2.38;1.75;;;24.80;64.90;;;;;;10534476;28;20028;-55
2022/08/05 01:09:22;;;;;;;2.15;1.73;;;24.80;64.90;;;;;;10534098;28;20024;-55
2022/08/05 01:14:59;;;;;;;2.88;1.77;;;24.80;64.90;;;;;;10535295;28;20036;-55
2022/08/05 01:20:02;;;;;;;2.95;2.20;;;24.80;64.80;;;;;;10518542;28;20399;-55
2022/08/05 01:25:28;;;;;;;2.35;1.83;;;24.80;65.00;;;;;;10534459;28;20043;-55
2022/08/05 01:30:33;;;;;;;2.40;1.77;;;24.80;64.90;;;;;;10534939;28;20024;-53
2022/08/05 01:35:39;;;;;;;3.00;1.75;;;24.80;64.90;;;;;;10516743;28;20089;-55
2022/08/05 01:40:41;;;;;;;2.90;1.80;;;24.80;64.90;;;;;;10516747;28;20044;-54
2022/08/05 01:45:42;;;;;;;2.45;1.67;;;24.70;64.90;;;;;;10515602;28;20097;-54
2022/08/05 01:50:45;;;;;;;2.88;1.90;;;24.80;64.90;;;;;;10515669;28;20474;-54
2022/08/05 01:55:47;;;;;;;3.35;1.73;;;24.70;64.90;;;;;;10515548;28;20075;-55
2022/08/05 02:00:50;;;;;;;2.33;1.70;;;24.70;64.90;;;;;;10514944;28;20051;-55
2022/08/05 02:05:53;;;;;;;2.25;1.50;;;24.70;64.90;;;;;;10533084;28;20032;-54
2022/08/05 02:11:14;;;;;;;1.90;1.50;;;24.70;64.90;;;;;;10532744;28;20078;-54
2022/08/05 02:16:24;;;;;;;2.03;1.60;;;24.70;64.90;;;;;;10517088;28;20043;-55
2022/08/05 02:21:32;;;;;;;2.95;2.00;;;24.70;64.90;;;;;;10514590;28;20453;-53
2022/08/05 02:26:46;;;;;;;2.00;1.52;;;24.70;64.90;;;;;;10515483;28;20123;-55
2022/08/05 02:31:49;;;;;;;3.13;1.60;;;24.70;64.90;;;;;;10515201;28;20047;-55
2022/08/05 02:36:54;;;;;;;1.77;1.48;;;24.70;64.90;;;;;;10514498;28;20024;-55
2022/08/05 02:41:57;;;;;;;2.20;1.65;;;24.70;64.90;;;;;;10514651;28;20071;-55
2022/08/05 02:46:58;;;;;;;2.20;1.58;;;24.70;65.00;;;;;;10531983;28;20024;-53
2022/08/05 02:52:01;;;;;;;2.97;1.60;;;24.70;65.00;;;;;;10513766;28;20086;-57
2022/08/05 02:57:06;;;;;;;2.80;2.22;;;24.60;64.90;;;;;;10514407;28;20131;-54
2022/08/05 03:02:09;;;;;;;1.92;1.60;;;24.60;64.90;;;;;;10532499;28;20024;-55
2022/08/05 03:07:11;;;;;;;1.75;1.38;;;24.70;64.90;;;;;;10514006;28;20044;-53
2022/08/05 03:12:33;;;;;;;3.65;1.73;;;24.60;64.90;;;;;;10513877;28;20039;-53
2022/08/05 03:17:36;;;;;;;3.17;1.80;;;24.70;64.90;;;;;;10531721;28;20664;-54
2022/08/05 03:22:36;;;;;;;2.70;2.15;;;24.60;64.90;;;;;;10531785;28;20040;-53
2022/08/05 03:27:37;;;;;;;3.38;1.42;;;24.60;64.90;;;;;;10513575;28;20032;-54
2022/08/05 03:32:38;;;;;;;2.95;1.55;;;24.60;64.90;;;;;;10531894;28;20427;-54
2022/08/05 03:37:40;;;;;;;1.63;1.40;;;24.60;64.90;;;;;;10520372;28;20046;-54
2022/08/05 03:42:41;;;;;;;2.20;1.50;;;24.60;64.90;;;;;;10521110;28;20035;-54
2022/08/05 03:47:41;;;;;;;1.85;1.50;;;24.60;64.90;;;;;;10519916;28;20528;-55
2022/08/05 03:52:53;;;;;;;3.03;2.03;;;24.60;65.50;;;;;;10538791;28;20813;-55
2022/08/05 03:57:55;;;;;;;3.65;1.60;;;24.60;64.90;;;;;;10538706;28;20023;-55
2022/08/05 04:03:01;;;;;;;1.92;1.48;;;24.60;64.90;;;;;;10520357;28;20411;-54
2022/08/05 04:08:08;;;;;;;2.72;1.83;;;24.60;64.90;;;;;;10520439;28;20111;-54
2022/08/05 04:13:09;;;;;;;2.95;1.75;;;24.60;64.90;;;;;;10537132;28;20028;-54
2022/08/05 04:18:10;;;;;;;2.63;1.85;;;24.60;64.90;;;;;;10518465;28;20031;-55
2022/08/05 04:23:10;;;;;;;2.67;1.88;;;24.60;64.90;;;;;;10516227;28;20036;-54
2022/08/05 04:28:11;;;;;;;2.08;1.33;;;24.60;64.90;;;;;;10519101;28;20027;-55
2022/08/05 04:33:14;;;;;;;2.22;1.80;;;24.50;64.80;;;;;;10536804;28;20154;-55
2022/08/05 04:38:15;;;;;;;2.03;1.65;;;24.50;64.80;;;;;;10518196;28;20044;-58
2022/08/05 04:43:15;;;;;;;4.00;2.50;;;24.50;64.80;;;;;;10533075;28;20441;-55
2022/08/05 04:48:16;;;;;;;4.03;1.95;;;24.60;65.10;;;;;;10517835;28;20028;-56
2022/08/05 04:53:18;;;;;;;5.65;1.98;;;24.60;65.30;;;;;;10525977;28;20039;-57
2022/08/05 04:58:18;;;;;;;4.05;1.70;;;24.70;65.80;;;;;;10513695;28;20036;-55
2022/08/05 05:03:19;;;;;;;7.93;1.67;;;24.70;66.10;;;;;;10518028;28;20441;-54
2022/08/05 05:08:20;;;;;;;5.68;1.98;;;24.70;66.10;;;;;;10535085;28;20024;-57
2022/08/05 05:13:20;;;;;;;5.22;2.05;;;24.70;65.80;;;;;;10534804;28;20024;-56
2022/08/05 05:18:21;;;;;;;9.50;2.65;;;24.60;65.40;;;;;;10510711;28;20043;-54
2022/08/05 05:23:22;;;;;;;3.97;1.90;;;24.60;65.50;;;;;;10531825;28;20024;-55
2022/08/05 05:28:23;;;;;;;5.35;2.38;;;24.60;65.90;;;;;;10466899;28;20030;-54
2022/08/05 05:33:23;;;;;;;4.32;2.10;;;24.60;65.30;;;;;;10528854;28;20115;-53
2022/08/05 05:38:24;;;;;;;5.15;1.67;;;24.60;65.20;;;;;;10512123;28;20059;-55
2022/08/05 05:43:25;;;;;;;6.30;1.80;;;24.50;65.10;;;;;;10530974;28;20455;-54
2022/08/05 05:48:26;;;;;;;3.60;1.90;;;24.50;65.00;;;;;;10531999;28;20028;-54
2022/08/05 05:53:27;;;;;;;3.42;1.65;;;24.50;65.10;;;;;;10533056;28;20028;-54
2022/08/05 05:58:28;;;;;;;4.13;2.00;;;24.50;65.00;;;;;;10532256;28;20046;-55
2022/08/05 06:03:28;;;;;;;2.95;1.75;;;24.50;65.00;;;;;;10532646;28;20035;-54
2022/08/05 06:08:29;;;;;;;4.78;1.60;;;24.50;65.00;;;;;;10532467;28;20028;-54
2022/08/05 06:13:30;;;;;;;6.03;1.92;;;24.50;64.90;;;;;;10532855;28;20028;-55
2022/08/05 06:18:31;;;;;;;3.15;1.60;;;24.50;65.00;;;;;;10532405;28;20067;-53
2022/08/05 06:23:32;;;;;;;2.47;1.45;;;24.50;65.00;;;;;;10532170;28;20484;-55
2022/08/05 06:28:33;;;;;;;2.80;1.63;;;24.50;65.00;;;;;;10531944;28;20027;-54
2022/08/05 06:33:33;;;;;;;3.20;2.08;;;24.50;65.00;;;;;;10531601;28;20027;-55
2022/08/05 06:38:34;;;;;;;2.85;2.10;;;24.50;64.80;;;;;;10531083;28;20404;-53
2022/08/05 06:43:36;;;;;;;2.75;1.65;;;24.50;64.80;;;;;;10528545;28;20132;-54
2022/08/05 06:48:36;;;;;;;4.05;2.58;;;24.50;64.80;;;;;;10531151;28;20026;-54
2022/08/05 06:53:37;;;;;;;2.30;1.80;;;24.50;64.80;;;;;;10531534;28;20028;-55
2022/08/05 06:58:38;;;;;;;2.65;1.70;;;24.50;64.80;;;;;;10530920;28;20024;-55
2022/08/05 07:03:38;;;;;;;2.60;1.52;;;24.50;64.80;;;;;;10530945;28;20035;-54
2022/08/05 07:08:41;;;;;;;2.95;2.42;;;24.40;64.70;;;;;;10537043;28;20377;-54
2022/08/05 07:19:02;;;;;;;1.98;1.58;;;24.50;64.80;;;;;;10540176;28;20467;-55
2022/08/05 07:24:04;;;;;;;2.78;1.40;;;24.50;64.70;;;;;;10520514;28;20063;-54
2022/08/05 07:29:05;;;;;;;2.67;1.55;;;24.50;64.70;;;;;;10539067;28;20023;-54
2022/08/05 07:34:06;;;;;;;2.63;1.60;;;24.50;64.70;;;;;;10538362;28;20024;-54
2022/08/05 07:39:08;;;;;;;3.08;1.73;;;24.50;64.70;;;;;;10520167;28;20173;-55
2022/08/05 07:44:08;;;;;;;2.47;1.85;;;24.40;64.70;;;;;;10538046;28;20029;-55
2022/08/05 07:49:09;;;;;;;2.20;1.65;;;24.50;64.60;;;;;;10519410;28;20024;-54
2022/08/05 07:54:10;;;;;;;2.25;1.58;;;24.50;64.60;;;;;;10537703;28;20126;-53
2022/08/05 07:59:11;;;;;;;5.53;2.70;;;24.50;64.60;;;;;;10537767;28;20427;-55
2022/08/05 08:04:11;;;;;;;3.95;2.10;;;24.50;64.50;;;;;;10537304;28;20417;-55
2022/08/05 08:09:12;;;;;;;2.67;1.52;;;24.50;64.50;;;;;;10537303;28;20103;-55
2022/08/05 08:14:13;;;;;;;2.42;1.33;;;24.50;64.40;;;;;;10537114;28;20102;-54
2022/08/05 08:19:13;;;;;;;2.72;1.50;;;24.50;64.20;;;;;;10536008;28;20027;-55
2022/08/05 08:24:14;;;;;;;1.85;1.35;;;24.50;64.20;;;;;;10512386;28;20036;-54
2022/08/05 08:29:15;;;;;;;2.25;1.65;;;24.50;64.20;;;;;;10535383;28;20084;-55
2022/08/05 08:34:18;;;;;;;2.83;1.60;;;24.50;64.20;;;;;;10535803;28;20031;-55
2022/08/05 08:39:18;;;;;;;2.10;1.50;;;24.50;64.30;;;;;;10522023;28;20432;-52
2022/08/05 08:44:22;;;;;;;1.90;1.35;;;24.50;64.30;;;;;;10515631;28;20032;-55
2022/08/05 08:49:23;;;;;;;3.25;1.55;;;24.50;64.30;;;;;;10517463;28;20427;-56
2022/08/05 08:54:25;;;;;;;3.50;2.28;;;24.50;64.20;;;;;;10535561;28;20024;-55
2022/08/05 08:59:26;;;;;;;2.90;1.80;;;24.50;64.10;;;;;;10535481;28;20032;-55
2022/08/05 09:04:27;;;;;;;1.60;1.23;;;24.50;64.00;;;;;;10516470;28;20039;-54
2022/08/05 09:09:30;;;;;;;1.60;1.10;;;24.50;63.90;;;;;;10535130;28;20185;-55
2022/08/05 09:14:31;;;;;;;1.80;1.20;;;24.50;63.80;;;;;;10534509;28;20024;-56
2022/08/05 09:19:32;;;;;;;1.98;1.50;;;24.50;63.80;;;;;;10534521;28;20047;-56
2022/08/05 09:24:36;;;;;;;1.77;1.33;;;24.50;63.80;;;;;;10534303;28;20096;-55
2022/08/05 09:29:46;;;;;;;1.77;1.30;;;24.50;63.50;;;;;;10518806;28;20028;-56
2022/08/05 09:34:51;;;;;;;2.22;1.30;;;24.50;63.40;;;;;;10533695;28;20140;-55
2022/08/05 09:39:52;;;;;;;1.77;1.30;;;24.60;63.40;;;;;;10532613;28;20129;-54
2022/08/05 09:44:53;;;;;;;1.52;1.20;;;24.60;63.30;;;;;;10533418;28;20028;-54
2022/08/05 09:49:56;;;;;;;2.10;1.35;;;24.60;62.90;;;;;;10533000;28;20455;-55
2022/08/05 09:55:11;;;;;;;1.42;1.08;;;24.60;62.90;;;;;;10514441;28;20035;-56
2022/08/05 10:00:15;;;;;;;1.52;1.10;;;24.60;62.80;;;;;;10532968;28;20367;-55
2022/08/05 10:05:22;;;;;;;1.50;1.38;;;24.60;62.80;;;;;;10532416;28;20039;-55
2022/08/05 10:10:32;;;;;;;2.20;1.23;;;24.60;62.70;;;;;;10532331;28;20518;-55
2022/08/05 10:15:37;;;;;;;1.67;1.02;;;24.60;62.40;;;;;;10532923;28;20122;-55
2022/08/05 10:20:51;;;;;;;1.38;1.10;;;24.60;62.60;;;;;;10531905;28;20587;-55
2022/08/05 10:25:55;;;;;;;1.30;1.02;;;24.60;62.50;;;;;;10527130;28;20032;-54
2022/08/05 10:30:58;;;;;;;1.20;0.85;;;24.60;62.40;;;;;;10513751;28;20028;-55
2022/08/05 10:36:03;;;;;;;2.70;1.08;;;24.60;62.50;;;;;;10531382;28;20136;-56
2022/08/05 10:41:36;;;;;;;1.73;1.00;;;24.60;62.50;;;;;;10513290;28;20148;-56
2022/08/05 10:46:52;;;;;;;1.20;0.98;;;24.60;62.40;;;;;;10507125;28;20031;-54
2022/08/05 10:51:59;;;;;;;1.33;0.90;;;24.60;62.30;;;;;;10512740;28;20048;-56
2022/08/05 10:56:59;;;;;;;1.10;0.80;;;24.60;62.20;;;;;;10496874;28;20055;-53
2022/08/05 11:02:12;;;;;;;1.02;0.82;;;24.60;62.10;;;;;;10531260;28;20514;-54
2022/08/05 11:07:17;;;;;;;1.80;0.93;;;24.60;62.00;;;;;;10526404;28;20078;-53
2022/08/05 11:12:37;;;;;;;1.67;1.23;;;24.60;62.10;;;;;;10512866;28;20016;-54
2022/08/05 11:17:38;;;;;;;2.83;1.25;;;24.60;61.90;;;;;;10531000;28;20556;-52
2022/08/05 11:22:51;;;;;;;1.48;0.98;;;24.60;62.10;;;;;;10528809;28;20035;-53
2022/08/05 11:27:51;;;;;;;1.58;0.80;;;24.60;62.40;;;;;;10529801;28;20056;-53
2022/08/05 11:33:29;;;;;;;1.42;0.88;;;24.60;61.60;;;;;;10530842;28;20032;-53
2022/08/05 11:38:42;;;;;;;2.95;0.90;;;24.60;61.80;;;;;;10530094;28;20050;-53
2022/08/05 11:44:01;;;;;;;1.75;1.00;;;24.60;61.60;;;;;;10530351;28;20119;-54
2022/08/05 11:49:05;;;;;;;1.27;0.77;;;24.60;61.40;;;;;;10530108;28;20034;-51
2022/08/05 11:54:06;;;;;;;2.38;0.90;;;24.60;61.60;;;;;;10533311;28;20028;-52
2022/08/05 11:59:11;;;;;;;1.85;1.10;;;24.60;61.60;;;;;;10537939;28;20118;-54
2022/08/05 12:04:11;;;;;;;1.30;0.85;;;24.60;61.20;;;;;;10538099;28;20071;-53
2022/08/05 12:09:18;;;;;;;1.58;1.10;;;24.60;61.10;;;;;;10537535;28;20471;-52
2022/08/05 12:14:19;;;;;;;1.88;0.70;;;24.60;61.10;;;;;;10519453;28;20035;-56
2022/08/05 12:19:25;;;;;;;1.42;0.80;;;24.60;61.00;;;;;;10518568;28;20075;-46
2022/08/05 12:24:25;;;;;;;1.20;0.80;;;24.50;60.60;;;;;;10507727;28;20028;-46
2022/08/05 12:29:28;;;;;;;2.22;0.90;;;24.50;59.50;;;;;;10494567;28;20618;-53
2022/08/05 12:34:35;;;;;;;3.13;0.80;;;24.50;58.50;;;;;;10522908;28;20367;-52
2022/08/05 12:39:39;;;;;;;1.58;0.70;;;24.50;56.20;;;;;;10536056;28;20051;-53
2022/08/05 12:44:41;;;;;;;2.10;0.63;;;24.50;55.30;;;;;;10515809;28;20040;-52
2022/08/05 12:49:49;;;;;;;1.77;0.77;;;24.50;55.20;;;;;;10499302;28;20106;-52
2022/08/05 12:54:50;;;;;;;2.05;0.80;;;24.50;55.80;;;;;;10517780;28;20089;-53
2022/08/05 12:59:53;;;;;;;1.92;0.80;;;24.50;50.90;;;;;;10500497;28;20035;-52
2022/08/05 13:04:54;;;;;;;1.25;0.60;;;24.40;50.30;;;;;;10532673;28;20035;-53
2022/08/05 13:10:00;;;;;;;2.25;0.60;;;24.40;46.70;;;;;;10516512;28;20032;-51
2022/08/05 13:15:01;;;;;;;1.75;0.40;;;24.30;47.30;;;;;;10533984;28;20028;-52
2022/08/05 13:20:08;;;;;;;1.20;0.80;;;24.30;46.90;;;;;;10534471;28;20115;-52
2022/08/05 13:25:13;;;;;;;2.47;0.70;;;24.30;47.00;;;;;;10531586;28;20111;-53
2022/08/05 13:30:18;;;;;;;1.08;0.40;;;24.30;47.40;;;;;;10532527;28;20024;-52
2022/08/05 13:35:19;;;;;;;1.83;0.60;;;24.30;46.40;;;;;;10515429;28;20078;-51
2022/08/05 13:40:20;;;;;;;1.90;0.70;;;24.30;45.80;;;;;;10533367;28;20546;-51
2022/08/05 13:45:21;;;;;;;1.30;0.60;;;24.30;46.90;;;;;;10533430;28;20024;-51
2022/08/05 13:50:22;;;;;;;2.05;0.70;;;24.30;43.90;;;;;;10533146;28;20030;-52
2022/08/05 13:55:22;;;;;;;1.65;0.70;;;24.30;45.20;;;;;;10531868;28;20494;-53
2022/08/05 14:00:23;;;;;;;1.67;0.63;;;24.30;44.90;;;;;;10503177;28;20550;-53
2022/08/05 14:05:24;;;;;;;1.15;0.60;;;24.30;44.70;;;;;;10534346;28;20118;-53
2022/08/05 14:10:27;;;;;;;2.20;0.90;;;24.30;44.50;;;;;;10537161;28;20028;-53
2022/08/05 14:15:28;;;;;;;2.53;0.90;;;24.30;45.40;;;;;;10536338;28;20039;-53
2022/08/05 14:20:29;;;;;;;1.95;0.60;;;24.30;44.60;;;;;;10530262;28;20028;-53
2022/08/05 14:25:30;;;;;;;1.58;0.60;;;24.30;45.90;;;;;;10526207;28;20036;-52
2022/08/05 14:30:31;;;;;;;2.97;0.60;;;24.20;45.30;;;;;;10519578;28;20030;-53
2022/08/05 14:35:31;;;;;;;2.17;0.75;;;24.20;45.80;;;;;;10528410;28;20089;-53
2022/08/05 14:40:32;;;;;;;3.22;1.08;;;24.20;46.60;;;;;;10514551;28;20052;-52
2022/08/05 14:45:33;;;;;;;3.15;0.75;;;24.10;46.30;;;;;;10536280;28;20063;-50
2022/08/05 14:50:34;;;;;;;1.35;0.65;;;24.10;46.80;;;;;;10536160;28;20042;-52
2022/08/05 14:55:35;;;;;;;1.48;0.60;;;24.10;45.70;;;;;;10536522;28;20036;-53
2022/08/05 15:00:36;;;;;;;1.40;0.70;;;24.00;46.60;;;;;;10535986;28;20059;-53
2022/08/05 15:05:37;;;;;;;3.50;1.23;;;24.00;45.90;;;;;;10536034;28;20032;-52
2022/08/05 15:10:40;;;;;;;1.45;0.70;;;24.00;46.60;;;;;;10535552;28;20034;-52
2022/08/05 15:15:40;;;;;;;1.85;0.77;;;24.00;45.60;;;;;;10536122;28;20432;-54
2022/08/05 15:20:41;;;;;;;1.50;0.60;;;24.00;47.00;;;;;;10535867;28;20177;-53
2022/08/05 15:25:42;;;;;;;1.55;0.70;;;24.00;45.30;;;;;;10517274;28;20108;-53
2022/08/05 15:30:44;;;;;;;1.98;0.65;;;24.00;45.80;;;;;;10540973;28;20036;-52
2022/08/05 15:35:44;;;;;;;1.27;0.70;;;24.00;45.50;;;;;;10543481;28;20032;-52
2022/08/05 15:40:45;;;;;;;2.75;0.90;;;24.00;45.30;;;;;;10542925;28;20056;-52
2022/08/05 15:45:46;;;;;;;2.58;0.63;;;24.00;45.20;;;;;;10525126;28;20405;-52
2022/08/05 15:50:47;;;;;;;2.10;1.17;;;23.90;45.60;;;;;;10543082;28;20155;-53
2022/08/05 15:55:48;;;;;;;0.65;0.60;;;23.90;45.00;;;;;;10542738;28;20034;-51
2022/08/05 16:00:48;;;;;;;4.22;0.80;;;23.90;44.90;;;;;;10542569;28;20365;-53
2022/08/05 16:05:49;;;;;;;3.22;0.82;;;23.90;44.60;;;;;;10524443;28;20028;-52
2022/08/05 16:10:50;;;;;;;2.22;0.60;;;23.90;45.10;;;;;;10542051;28;20047;-53
2022/08/05 16:15:50;;;;;;;1.52;0.63;;;23.90;45.50;;;;;;10542417;28;20028;-53
2022/08/05 16:20:51;;;;;;;2.45;0.85;;;23.90;45.80;;;;;;10523727;28;20028;-52
2022/08/05 16:26:10;;;;;;;1.13;0.68;;;23.90;45.90;;;;;;10537165;28;20032;-53
2022/08/05 16:31:11;;;;;;;;;;;23.90;46.20;;;;;;10542054;28;20600;-53
2022/08/05 16:36:12;;;;;;;1.17;0.68;;;23.90;46.00;;;;;;10506352;28;19914;-53
2022/08/05 16:41:13;;;;;;;3.38;0.88;;;23.80;46.40;;;;;;10522090;28;20127;-53
2022/08/05 16:46:13;;;;;;;1.98;0.80;;;23.80;46.90;;;;;;10540855;28;20028;-53
2022/08/05 16:51:14;;;;;;;1.40;0.60;;;23.80;46.50;;;;;;10522088;28;20181;-53
2022/08/05 16:56:16;;;;;;;2.97;0.85;;;23.80;46.30;;;;;;10522237;28;20115;-50
2022/08/05 17:01:17;;;;;;;2.97;0.93;;;23.80;45.60;;;;;;10539639;28;20047;-53
2022/08/05 17:06:18;;;;;;;0.88;0.60;;;23.70;45.40;;;;;;10539920;28;20043;-52
2022/08/05 17:11:19;;;;;;;2.35;0.90;;;23.70;45.20;;;;;;10521961;28;20020;-53
2022/08/05 17:16:19;;;;;;;0.75;0.57;;;23.70;45.80;;;;;;10539532;28;20028;-53
2022/08/05 17:21:20;;;;;;;2.63;0.85;;;23.70;45.80;;;;;;10539206;28;20035;-53
2022/08/05 17:26:21;;;;;;;2.97;0.93;;;23.70;45.70;;;;;;10533947;28;20028;-53
2022/08/05 17:31:22;;;;;;;3.03;0.80;;;23.70;45.60;;;;;;10536328;28;20043;-53
2022/08/05 17:36:23;;;;;;;6.25;0.90;;;23.60;46.80;;;;;;10538449;28;20119;-54
2022/08/05 17:41:24;;;;;;;3.55;0.93;;;23.70;45.80;;;;;;10538295;28;20115;-53
2022/08/05 17:46:24;;;;;;;4.68;1.20;;;23.60;45.40;;;;;;10537856;28;20055;-53
2022/08/05 17:51:25;;;;;;;4.30;1.42;;;23.60;45.90;;;;;;10537379;28;20038;-54
2022/08/05 17:56:26;;;;;;;3.08;1.00;;;23.60;45.10;;;;;;10537059;28;20040;-51
2022/08/05 18:01:28;;;;;;;2.22;0.90;;;23.60;45.10;;;;;;10533930;28;20051;-54
2022/08/05 18:06:28;;;;;;;2.95;0.90;;;23.60;44.20;;;;;;10518891;28;20428;-54
2022/08/05 18:11:29;;;;;;;5.70;1.75;;;23.60;43.80;;;;;;10518680;28;20080;-53
2022/08/05 18:16:32;;;;;;;3.17;0.80;;;23.60;43.80;;;;;;10501526;28;20095;-52
2022/08/05 18:21:33;;;;;;;5.72;0.90;;;23.60;43.70;;;;;;10518205;28;20469;-54
2022/08/05 18:26:34;;;;;;;3.60;1.20;;;23.70;44.00;;;;;;10517931;28;20036;-52
2022/08/05 18:31:35;;;;;;;3.50;0.90;;;23.70;44.70;;;;;;10534558;28;20473;-53
2022/08/05 18:36:36;;;;;;;5.50;0.90;;;23.80;44.90;;;;;;10535545;28;20402;-53
2022/08/05 18:41:37;;;;;;;4.57;0.90;;;23.80;45.40;;;;;;10535424;28;20044;-51
2022/08/05 18:46:38;;;;;;;2.72;0.90;;;23.80;45.10;;;;;;10536315;28;20035;-54
2022/08/05 18:56:59;;;;;;;;;;;23.80;45.50;;;;;;10536641;28;20047;-53
2022/08/05 19:01:59;;;;;;;4.55;0.85;;;23.80;45.90;;;;;;10536394;28;19908;-53
2022/08/05 19:07:00;;;;;;;3.95;0.80;;;23.70;45.40;;;;;;10523273;28;20483;-53
2022/08/05 19:12:01;;;;;;;3.30;0.70;;;23.80;45.80;;;;;;10524360;28;20513;-54
2022/08/05 19:17:01;;;;;;;2.28;0.60;;;23.70;46.20;;;;;;10541910;28;20077;-54
2022/08/05 19:22:02;;;;;;;1.45;0.90;;;23.80;46.80;;;;;;10542622;28;20035;-54
2022/08/05 19:27:04;;;;;;;2.58;0.90;;;23.80;45.70;;;;;;10524309;28;20498;-54
2022/08/05 19:32:06;;;;;;;3.05;0.95;;;23.80;46.10;;;;;;10543277;28;20141;-55
2022/08/05 19:37:08;;;;;;;2.75;0.63;;;23.80;47.00;;;;;;10542249;28;20043;-53
2022/08/05 19:42:09;;;;;;;2.65;0.70;;;23.80;47.40;;;;;;10542852;28;20424;-54
2022/08/05 19:47:10;;;;;;;4.38;1.00;;;23.80;47.40;;;;;;10523806;28;20099;-54
2022/08/05 19:52:10;;;;;;;2.20;0.50;;;23.80;47.90;;;;;;10542545;28;20062;-54
2022/08/05 19:57:11;;;;;;;2.28;0.70;;;23.80;47.90;;;;;;10541528;28;20637;-54
2022/08/05 20:02:12;;;;;;;2.53;0.80;;;23.80;48.20;;;;;;10523288;28;20062;-52
2022/08/05 20:07:13;;;;;;;1.70;0.60;;;23.70;48.20;;;;;;10541169;28;20089;-54
2022/08/05 20:12:14;;;;;;;3.75;0.73;;;23.70;48.40;;;;;;10542051;28;20115;-54
2022/08/05 20:17:15;;;;;;;1.60;0.75;;;23.80;48.70;;;;;;10538246;28;20731;-53
2022/08/05 20:22:15;;;;;;;1.58;0.70;;;23.70;48.80;;;;;;10519834;28;20036;-52
2022/08/05 20:27:16;;;;;;;4.43;0.82;;;23.70;49.00;;;;;;10519632;28;20020;-54
2022/08/05 20:32:17;;;;;;;3.30;0.70;;;23.70;49.10;;;;;;10537537;28;20046;-54
2022/08/05 20:37:17;;;;;;;3.47;0.80;;;23.70;49.30;;;;;;10519108;28;20519;-52
2022/08/05 20:42:18;;;;;;;2.05;1.05;;;23.70;49.30;;;;;;10501835;28;20046;-53
2022/08/05 20:47:19;;;;;;;1.35;0.63;;;23.70;49.50;;;;;;10519042;28;20036;-54
2022/08/05 20:52:20;;;;;;;2.03;0.90;;;23.70;49.70;;;;;;10536750;28;20031;-54
2022/08/05 20:57:20;;;;;;;2.35;0.80;;;23.70;49.60;;;;;;10536808;28;20115;-53
2022/08/05 21:02:21;;;;;;;3.13;1.02;;;23.70;49.70;;;;;;10536861;28;20032;-53
2022/08/05 21:07:22;;;;;;;1.45;0.75;;;23.70;49.90;;;;;;10536025;28;20032;-54
2022/08/05 21:12:23;;;;;;;2.08;0.68;;;23.70;50.00;;;;;;10501694;28;20028;-54
2022/08/05 21:17:25;;;;;;;1.15;0.50;;;23.70;50.00;;;;;;10535865;28;20450;-54
2022/08/05 21:22:26;;;;;;;2.83;0.77;;;23.70;50.00;;;;;;10535986;28;20479;-53
2022/08/05 21:27:27;;;;;;;1.42;0.73;;;23.70;50.10;;;;;;10535168;28;20032;-53
2022/08/05 21:32:27;;;;;;;1.63;0.80;;;23.60;50.10;;;;;;10515903;28;20016;-53
2022/08/05 21:37:28;;;;;;;3.67;0.80;;;23.60;50.30;;;;;;10534585;28;20669;-54
2022/08/05 21:42:29;;;;;;;1.88;0.70;;;23.60;50.20;;;;;;10534906;28;20032;-51
2022/08/05 21:47:30;;;;;;;2.50;0.88;;;23.60;50.30;;;;;;10534327;28;20043;-53
2022/08/05 21:52:30;;;;;;;1.50;0.77;;;23.60;50.40;;;;;;10516119;28;20032;-53
2022/08/05 21:57:31;;;;;;;3.13;1.58;;;23.60;50.40;;;;;;10534473;28;20041;-54
2022/08/05 22:02:32;;;;;;;2.65;0.80;;;23.60;50.60;;;;;;10534163;28;20032;-53
2022/08/05 22:07:33;;;;;;;1.77;1.13;;;23.60;50.60;;;;;;10533719;28;20032;-51
2022/08/05 22:12:38;;;;;;;2.00;0.90;;;23.60;50.70;;;;;;10498974;28;20425;-51
2022/08/05 22:17:41;;;;;;;0.85;0.50;;;23.60;50.70;;;;;;10533275;28;20466;-53
2022/08/05 22:28:01;;;;;;;1.55;0.73;;;23.60;50.90;;;;;;10520750;28;20491;-53
2022/08/05 22:33:03;;;;;;;1.42;0.68;;;23.60;50.90;;;;;;10521815;28;20075;-54
2022/08/05 22:38:04;;;;;;;1.48;0.80;;;23.60;50.90;;;;;;10532606;28;20044;-53
2022/08/05 22:43:05;;;;;;;3.47;1.15;;;23.60;50.90;;;;;;10533128;28;20032;-54
2022/08/05 22:48:06;;;;;;;1.23;0.80;;;23.60;51.00;;;;;;10532528;28;20035;-52
2022/08/05 22:53:07;;;;;;;2.08;0.93;;;23.50;51.20;;;;;;10532642;28;20020;-54
2022/08/05 22:58:08;;;;;;;2.30;0.90;;;23.50;51.10;;;;;;10532066;28;20058;-53
2022/08/05 23:03:08;;;;;;;1.60;0.75;;;23.50;51.10;;;;;;10532188;28;20414;-52
2022/08/05 23:08:11;;;;;;;1.65;0.50;;;23.50;51.00;;;;;;10532045;28;20036;-52
2022/08/05 23:13:11;;;;;;;2.67;1.58;;;23.50;51.10;;;;;;10532677;28;20470;-53
2022/08/05 23:18:12;;;;;;;1.73;0.90;;;23.50;51.20;;;;;;10532086;28;20034;-53
2022/08/05 23:23:13;;;;;;;2.10;0.80;;;23.50;51.20;;;;;;10508992;28;20020;-52
2022/08/05 23:28:14;;;;;;;1.65;0.70;;;23.50;51.10;;;;;;10530656;28;20032;-54
2022/08/05 23:33:14;;;;;;;1.73;0.70;;;23.50;51.00;;;;;;10513613;28;20116;-54
2022/08/05 23:38:16;;;;;;;2.55;1.15;;;23.40;51.10;;;;;;10531536;28;20040;-54
2022/08/05 23:43:17;;;;;;;1.98;0.63;;;23.40;51.10;;;;;;10513816;28;20028;-53
2022/08/05 23:48:18;;;;;;;2.83;0.95;;;23.40;51.00;;;;;;10513738;28;20426;-53
2022/08/05 23:53:19;;;;;;;1.85;0.82;;;23.40;51.00;;;;;;10539159;28;20024;-53
2022/08/05 23:58:20;;;;;;;1.95;0.90;;;23.40;51.10;;;;;;10539110;28;20149;-53
